Time,TemperatureF,DewpointF,PressureIn,WindDirection,WindDirectionDegrees,WindSpeedMPH,WindSpeedGustMPH,Humidity,HourlyPrecipIn,Conditions,Clouds,dailyrainin,SoftwareType,DateUTC
2013-04-02 00:00:00,25.3,22.8,30.03,WNW,298,0.0,8.0,90,0.00,,---,0.04,VWS V13.01,2013-04-02 04:00:00,
2013-04-02 00:02:00,25.3,22.8,30.03,WNW,298,1.0,4.0,90,0.00,,---,0.00,VWS V13.01,2013-04-02 04:02:00,
2013-04-02 00:07:00,25.3,22.8,30.03,NW,310,7.0,12.0,90,0.00,,---,0.00,VWS V13.01,2013-04-02 04:07:00,
2013-04-02 00:13:00,25.1,22.6,30.03,WNW,298,6.0,12.0,90,0.00,,---,0.00,VWS V13.01,2013-04-02 04:13:00,
2013-04-02 00:18:00,25.0,22.5,30.04,NW,309,4.0,12.0,90,0.00,,---,0.00,VWS V13.01,2013-04-02 04:18:00,
2013-04-02 00:23:00,24.9,22.6,30.04,NW,319,1.0,12.0,91,0.00,,---,0.00,VWS V13.01,2013-04-02 04:23:00,
2013-04-02 00:28:00,24.8,22.5,30.04,NW,320,0.0,12.0,91,0.00,,---,0.00,VWS V13.01,2013-04-02 04:28:00,
2013-04-02 00:34:00,24.7,22.5,30.04,NW,320,4.0,6.0,91,0.00,,---,0.00,VWS V13.01,2013-04-02 04:34:00,
2013-04-02 00:39:00,24.7,22.5,30.04,NW,326,5.0,7.0,91,0.00,,---,0.00,VWS V13.01,2013-04-02 04:39:00,
2013-04-02 00:44:00,24.7,22.5,30.04,NW,322,1.0,7.0,91,0.00,,---,0.00,VWS V13.01,2013-04-02 04:44:00,
2013-04-02 00:50:00,24.7,22.2,30.05,North,9,6.0,8.0,90,0.00,,---,0.00,VWS V13.01,2013-04-02 04:50:00,
2013-04-02 00:55:00,24.6,22.1,30.05,North,349,4.0,8.0,90,0.00,,---,0.00,VWS V13.01,2013-04-02 04:55:00,
2013-04-02 01:00:00,24.4,21.9,30.05,NNW,336,4.0,8.0,90,0.00,,---,0.00,VWS V13.01,2013-04-02 05:00:00,
2013-04-02 01:05:00,24.4,21.9,30.05,NW,313,2.0,8.0,90,0.00,,---,0.00,VWS V13.01,2013-04-02 05:05:00,
2013-04-02 01:10:00,24.4,21.9,30.05,NW,304,0.0,8.0,90,0.00,,---,0.00,VWS V13.01,2013-04-02 05:10:00,
2013-04-02 01:15:00,24.2,21.7,30.05,NW,305,0.0,8.0,90,0.00,,---,0.00,VWS V13.01,2013-04-02 05:15:00,
2013-04-02 01:20:00,24.2,21.7,30.05,North,355,5.0,9.0,90,0.00,,---,0.00,VWS V13.01,2013-04-02 05:20:00,
2013-04-02 01:26:00,24.1,21.6,30.06,NNW,327,3.0,9.0,90,0.00,,---,0.00,VWS V13.01,2013-04-02 05:26:00,
2013-04-02 01:31:00,23.9,21.4,30.06,WNW,303,8.0,12.0,90,0.00,,---,0.00,VWS V13.01,2013-04-02 05:31:00,
2013-04-02 01:37:00,23.6,20.8,30.06,NW,311,5.0,12.0,89,0.00,,---,0.00,VWS V13.01,2013-04-02 05:37:00,
2013-04-02 01:42:00,23.5,20.7,30.07,NW,320,7.0,12.0,89,0.00,,---,0.00,VWS V13.01,2013-04-02 05:42:00,
2013-04-02 01:47:00,23.4,20.6,30.07,WNW,302,10.0,12.0,89,0.00,,---,0.00,VWS V13.01,2013-04-02 05:47:00,
2013-04-02 01:53:00,23.1,20.1,30.07,NW,310,7.0,12.0,88,0.00,,---,0.00,VWS V13.01,2013-04-02 05:53:00,
2013-04-02 01:58:00,23.0,20.0,30.07,NW,321,5.0,12.0,88,0.00,,---,0.00,VWS V13.01,2013-04-02 05:58:00,
2013-04-02 02:03:00,23.1,19.8,30.07,NW,313,5.0,10.0,87,0.00,,---,0.00,VWS V13.01,2013-04-02 06:03:00,
2013-04-02 02:08:00,23.1,19.8,30.07,WNW,302,6.0,10.0,87,0.00,,---,0.00,VWS V13.01,2013-04-02 06:08:00,
2013-04-02 02:13:00,23.0,19.5,30.07,NW,314,8.0,10.0,86,0.00,,---,0.00,VWS V13.01,2013-04-02 06:13:00,
2013-04-02 02:18:00,22.9,19.4,30.07,NW,305,5.0,11.0,86,0.00,,---,0.00,VWS V13.01,2013-04-02 06:18:00,
2013-04-02 02:24:00,22.8,19.2,30.07,NW,306,4.0,11.0,86,0.00,,---,0.00,VWS V13.01,2013-04-02 06:24:00,
2013-04-02 02:29:00,22.9,19.4,30.07,NW,306,4.0,11.0,86,0.00,,---,0.00,VWS V13.01,2013-04-02 06:29:00,
2013-04-02 02:34:00,22.9,19.1,30.07,NW,304,6.0,9.0,85,0.00,,---,0.00,VWS V13.01,2013-04-02 06:34:00,
2013-04-02 02:39:00,22.7,18.6,30.07,West,277,7.0,10.0,84,0.00,,---,0.00,VWS V13.01,2013-04-02 06:39:00,
2013-04-02 02:44:00,22.6,18.5,30.06,West,277,6.0,10.0,84,0.00,,---,0.00,VWS V13.01,2013-04-02 06:44:00,
2013-04-02 02:50:00,22.6,18.5,30.07,West,278,5.0,10.0,84,0.00,,---,0.00,VWS V13.01,2013-04-02 06:50:00,
2013-04-02 02:55:00,22.5,18.4,30.06,West,278,6.0,10.0,84,0.00,,---,0.00,VWS V13.01,2013-04-02 06:55:00,
2013-04-02 03:00:00,22.5,18.1,30.06,West,276,6.0,10.0,83,0.00,,---,0.00,VWS V13.01,2013-04-02 07:00:00,
2013-04-02 03:05:00,22.7,18.3,30.07,WNW,286,8.0,9.0,83,0.00,,---,0.00,VWS V13.01,2013-04-02 07:05:00,
2013-04-02 03:10:00,22.9,17.7,30.06,WNW,303,6.0,13.0,80,0.00,,---,0.00,VWS V13.01,2013-04-02 07:10:00,
2013-04-02 03:16:00,23.0,17.8,30.06,WNW,298,2.0,13.0,80,0.00,,---,0.00,VWS V13.01,2013-04-02 07:16:00,
2013-04-02 03:21:00,23.0,17.5,30.07,NNW,327,4.0,13.0,79,0.00,,---,0.00,VWS V13.01,2013-04-02 07:21:00,
2013-04-02 03:27:00,22.8,17.3,30.07,NW,323,2.0,13.0,79,0.00,,---,0.00,VWS V13.01,2013-04-02 07:27:00,
2013-04-02 03:32:00,22.7,17.5,30.07,NW,313,4.0,7.0,80,0.00,,---,0.00,VWS V13.01,2013-04-02 07:32:00,
2013-04-02 03:37:00,22.7,17.8,30.07,WNW,294,8.0,10.0,81,0.00,,---,0.00,VWS V13.01,2013-04-02 07:37:00,
2013-04-02 03:43:00,22.8,17.9,30.07,WNW,290,9.0,12.0,81,0.00,,---,0.00,VWS V13.01,2013-04-02 07:43:00,
2013-04-02 03:48:00,22.6,17.9,30.07,WNW,290,4.0,12.0,82,0.00,,---,0.00,VWS V13.01,2013-04-02 07:48:00,
2013-04-02 03:53:00,22.4,18.3,30.08,WNW,290,6.0,12.0,84,0.00,,---,0.00,VWS V13.01,2013-04-02 07:53:00,
2013-04-02 03:58:00,22.3,18.5,30.07,WNW,292,5.0,12.0,85,0.00,,---,0.00,VWS V13.01,2013-04-02 07:58:00,
2013-04-02 04:03:00,22.2,18.4,30.08,WNW,290,5.0,7.0,85,0.00,,---,0.00,VWS V13.01,2013-04-02 08:03:00,
2013-04-02 04:08:00,22.2,18.7,30.08,WNW,290,5.0,7.0,86,0.00,,---,0.00,VWS V13.01,2013-04-02 08:08:00,
2013-04-02 04:14:00,22.0,18.7,30.08,WNW,290,5.0,7.0,87,0.00,,---,0.00,VWS V13.01,2013-04-02 08:14:00,
2013-04-02 04:19:00,21.8,18.5,30.08,WNW,290,5.0,7.0,87,0.00,,---,0.00,VWS V13.01,2013-04-02 08:19:00,
2013-04-02 04:25:00,21.6,18.3,30.08,WNW,290,4.0,7.0,87,0.00,,---,0.00,VWS V13.01,2013-04-02 08:25:00,
2013-04-02 04:30:00,20.9,17.6,30.08,WNW,290,2.0,7.0,87,0.00,,---,0.00,VWS V13.01,2013-04-02 08:30:00,
2013-04-02 04:35:00,20.5,17.2,30.08,WNW,290,2.0,4.0,87,0.00,,---,0.00,VWS V13.01,2013-04-02 08:35:00,
2013-04-02 04:40:00,20.1,16.9,30.08,WNW,290,0.0,4.0,87,0.00,,---,0.00,VWS V13.01,2013-04-02 08:40:00,
2013-04-02 04:46:00,19.7,16.5,30.08,WNW,290,0.0,4.0,87,0.00,,---,0.00,VWS V13.01,2013-04-02 08:46:00,
2013-04-02 04:51:00,19.7,16.7,30.08,WNW,290,0.0,4.0,88,0.00,,---,0.00,VWS V13.01,2013-04-02 08:51:00,
2013-04-02 04:56:00,19.8,16.8,30.08,WNW,290,1.0,4.0,88,0.00,,---,0.00,VWS V13.01,2013-04-02 08:56:00,
2013-04-02 05:02:00,19.7,16.5,30.08,WNW,290,0.0,2.0,87,0.00,,---,0.00,VWS V13.01,2013-04-02 09:02:00,
2013-04-02 05:07:00,18.8,15.6,30.09,WNW,290,1.0,2.0,87,0.00,,---,0.00,VWS V13.01,2013-04-02 09:07:00,
2013-04-02 05:12:00,18.3,15.1,30.09,WNW,290,0.0,2.0,87,0.00,,---,0.00,VWS V13.01,2013-04-02 09:12:00,
2013-04-02 05:18:00,18.5,15.6,30.09,WNW,290,0.0,2.0,88,0.00,,---,0.00,VWS V13.01,2013-04-02 09:18:00,
2013-04-02 05:23:00,19.0,16.3,30.09,WNW,290,0.0,2.0,89,0.00,,---,0.00,VWS V13.01,2013-04-02 09:23:00,
2013-04-02 05:28:00,19.7,17.2,30.09,WNW,290,0.0,2.0,90,0.00,,---,0.00,VWS V13.01,2013-04-02 09:28:00,
2013-04-02 05:33:00,19.9,17.2,30.09,WNW,290,1.0,2.0,89,0.00,,---,0.00,VWS V13.01,2013-04-02 09:33:00,
2013-04-02 05:39:00,20.2,17.5,30.10,WNW,302,6.0,7.0,89,0.00,,---,0.00,VWS V13.01,2013-04-02 09:39:00,
2013-04-02 05:44:00,21.0,18.3,30.10,NNW,330,7.0,14.0,89,0.00,,---,0.00,VWS V13.01,2013-04-02 09:44:00,
2013-04-02 05:49:00,21.1,18.1,30.11,NW,305,7.0,14.0,88,0.00,,---,0.00,VWS V13.01,2013-04-02 09:49:00,
2013-04-02 05:54:00,20.8,17.8,30.10,NW,305,3.0,14.0,88,0.00,,---,0.00,VWS V13.01,2013-04-02 09:54:00,
2013-04-02 05:59:00,20.1,17.1,30.11,NW,304,0.0,14.0,88,0.00,,---,0.00,VWS V13.01,2013-04-02 09:59:00,
2013-04-02 06:04:00,19.7,16.7,30.11,NW,304,0.0,0.0,88,0.00,,---,0.00,VWS V13.01,2013-04-02 10:04:00,
2013-04-02 06:09:00,19.3,16.3,30.12,NW,305,0.0,0.0,88,0.00,,---,0.00,VWS V13.01,2013-04-02 10:09:00,
2013-04-02 06:15:00,19.0,16.0,30.12,NW,305,2.0,2.0,88,0.00,,---,0.00,VWS V13.01,2013-04-02 10:15:00,
2013-04-02 06:20:00,19.4,16.7,30.12,NW,304,3.0,6.0,89,0.00,,---,0.00,VWS V13.01,2013-04-02 10:20:00,
2013-04-02 06:25:00,19.9,16.7,30.12,West,269,6.0,9.0,87,0.00,,---,0.00,VWS V13.01,2013-04-02 10:25:00,
2013-04-02 06:32:00,20.1,16.6,30.12,WNW,288,0.0,0.0,86,0.00,,---,0.00,VWS V13.01,2013-04-02 10:32:00,
2013-04-02 06:37:00,19.7,15.9,30.13,WNW,287,0.0,0.0,85,0.00,,---,0.00,VWS V13.01,2013-04-02 10:37:00,
2013-04-02 06:42:00,19.5,15.7,30.13,WNW,288,0.0,1.0,85,0.00,,---,0.00,VWS V13.01,2013-04-02 10:42:00,
2013-04-02 06:47:00,19.3,15.8,30.13,WNW,287,0.0,1.0,86,0.00,,---,0.00,VWS V13.01,2013-04-02 10:47:00,
2013-04-02 06:52:00,19.7,16.5,30.13,WNW,288,0.0,2.0,87,0.00,,---,0.00,VWS V13.01,2013-04-02 10:52:00,
2013-04-02 06:58:00,19.9,16.4,30.13,WNW,287,0.0,2.0,86,0.00,,---,0.00,VWS V13.01,2013-04-02 10:58:00,
2013-04-02 07:03:00,19.7,16.2,30.14,WNW,287,0.0,0.0,86,0.00,,---,0.00,VWS V13.01,2013-04-02 11:03:00,
2013-04-02 07:08:00,19.4,15.9,30.14,WNW,288,0.0,0.0,86,0.00,,---,0.00,VWS V13.01,2013-04-02 11:08:00,
2013-04-02 07:13:00,19.3,15.8,30.14,WNW,288,1.0,5.0,86,0.00,,---,0.00,VWS V13.01,2013-04-02 11:13:00,
2013-04-02 07:18:00,20.4,16.6,30.15,WNW,286,8.0,9.0,85,0.00,,---,0.00,VWS V13.01,2013-04-02 11:18:00,
2013-04-02 07:23:00,21.3,17.2,30.15,West,279,10.0,12.0,84,0.00,,---,0.00,VWS V13.01,2013-04-02 11:23:00,
2013-04-02 07:29:00,21.6,17.5,30.15,NW,309,6.0,12.0,84,0.00,,---,0.00,VWS V13.01,2013-04-02 11:29:00,
2013-04-02 07:34:00,21.6,19.6,30.16,NNW,328,9.0,10.0,92,0.00,,---,0.00,VWS V13.01,2013-04-02 11:34:00,
2013-04-02 07:39:00,21.4,17.6,30.16,NW,318,4.0,10.0,85,0.00,,---,0.00,VWS V13.01,2013-04-02 11:39:00,
2013-04-02 07:44:00,21.1,17.6,30.16,NW,319,4.0,10.0,86,0.00,,---,0.00,VWS V13.01,2013-04-02 11:44:00,
2013-04-02 07:49:00,20.9,17.6,30.16,NW,319,5.0,10.0,87,0.00,,---,0.00,VWS V13.01,2013-04-02 11:49:00,
2013-04-02 07:55:00,21.0,17.5,30.17,NW,319,3.0,10.0,86,0.00,,---,0.00,VWS V13.01,2013-04-02 11:55:00,
2013-04-02 08:00:00,21.5,18.2,30.17,WNW,301,6.0,10.0,87,0.00,,---,0.00,VWS V13.01,2013-04-02 12:00:00,
2013-04-02 08:05:00,21.8,18.3,30.17,WNW,284,8.0,9.0,86,0.00,,---,0.00,VWS V13.01,2013-04-02 12:05:00,
2013-04-02 08:10:00,21.6,18.1,30.18,West,281,7.0,9.0,86,0.00,,---,0.00,VWS V13.01,2013-04-02 12:10:00,
2013-04-02 08:15:00,21.7,18.4,30.18,West,277,6.0,11.0,87,0.00,,---,0.00,VWS V13.01,2013-04-02 12:15:00,
2013-04-02 08:20:00,21.7,18.2,30.18,West,259,7.0,11.0,86,0.00,,---,0.00,VWS V13.01,2013-04-02 12:20:00,
2013-04-02 08:26:00,21.9,18.4,30.19,West,272,7.0,11.0,86,0.00,,---,0.00,VWS V13.01,2013-04-02 12:26:00,
2013-04-02 08:31:00,22.2,18.7,30.19,WSW,256,7.0,7.0,86,0.00,,---,0.00,VWS V13.01,2013-04-02 12:31:00,
2013-04-02 08:37:00,22.5,19.0,30.19,WSW,257,6.0,9.0,86,0.00,,---,0.00,VWS V13.01,2013-04-02 12:37:00,
2013-04-02 08:42:00,22.7,19.1,30.19,West,265,6.0,9.0,86,0.00,,---,0.00,VWS V13.01,2013-04-02 12:42:00,
2013-04-02 08:47:00,22.8,19.2,30.19,West,272,7.0,13.0,86,0.00,,---,0.00,VWS V13.01,2013-04-02 12:47:00,
2013-04-02 08:52:00,22.8,19.2,30.19,West,265,6.0,13.0,86,0.00,,---,0.00,VWS V13.01,2013-04-02 12:52:00,
2013-04-02 08:58:00,23.0,19.5,30.20,West,261,3.0,13.0,86,0.00,,---,0.00,VWS V13.01,2013-04-02 12:58:00,
2013-04-02 09:03:00,23.2,19.4,30.19,West,277,7.0,12.0,85,0.00,,---,0.00,VWS V13.01,2013-04-02 13:03:00,
2013-04-02 09:08:00,23.6,19.8,30.19,West,276,7.0,12.0,85,0.00,,---,0.00,VWS V13.01,2013-04-02 13:08:00,
2013-04-02 09:13:00,23.9,19.8,30.19,West,275,9.0,12.0,84,0.00,,---,0.00,VWS V13.01,2013-04-02 13:13:00,
2013-04-02 09:18:00,23.9,19.5,30.19,WNW,294,9.0,12.0,83,0.00,,---,0.00,VWS V13.01,2013-04-02 13:18:00,
2013-04-02 09:24:00,24.2,19.8,30.19,West,265,11.0,15.0,83,0.00,,---,0.00,VWS V13.01,2013-04-02 13:24:00,
2013-04-02 09:29:00,24.4,19.7,30.19,WNW,287,11.0,15.0,82,0.00,,---,0.00,VWS V13.01,2013-04-02 13:29:00,
2013-04-02 09:34:00,24.6,19.3,30.19,WNW,287,10.0,13.0,80,0.00,,---,0.00,VWS V13.01,2013-04-02 13:34:00,
2013-04-02 09:40:00,24.8,19.8,30.19,WNW,294,9.0,13.0,81,0.00,,---,0.00,VWS V13.01,2013-04-02 13:40:00,
2013-04-02 09:45:00,24.4,20.0,30.19,WNW,286,13.0,18.0,83,0.00,,---,0.00,VWS V13.01,2013-04-02 13:45:00,
2013-04-02 09:50:00,23.6,20.3,30.20,West,267,10.0,18.0,87,0.00,,---,0.00,VWS V13.01,2013-04-02 13:50:00,
2013-04-02 09:55:00,23.9,20.9,30.20,West,270,9.0,18.0,88,0.00,,---,0.00,VWS V13.01,2013-04-02 13:55:00,
2013-04-02 10:00:00,24.4,20.3,30.20,West,272,13.0,15.0,84,0.00,,---,0.00,VWS V13.01,2013-04-02 14:00:00,
2013-04-02 10:06:00,24.6,19.9,30.20,WNW,286,15.0,22.0,82,0.00,,---,0.00,VWS V13.01,2013-04-02 14:06:00,
2013-04-02 10:12:00,24.5,20.1,30.19,WSW,256,18.0,23.0,83,0.00,,---,0.00,VWS V13.01,2013-04-02 14:12:00,
2013-04-02 10:17:00,24.5,19.8,30.20,WNW,283,14.0,23.0,82,0.00,,---,0.00,VWS V13.01,2013-04-02 14:17:00,
2013-04-02 10:22:00,24.9,19.9,30.20,NW,318,11.0,23.0,81,0.00,,---,0.00,VWS V13.01,2013-04-02 14:22:00,
2013-04-02 10:27:00,25.3,20.3,30.20,WNW,292,13.0,23.0,81,0.00,,---,0.00,VWS V13.01,2013-04-02 14:27:00,
2013-04-02 10:33:00,25.2,20.2,30.20,West,271,12.0,16.0,81,0.00,,---,0.00,VWS V13.01,2013-04-02 14:33:00,
2013-04-02 10:38:00,24.8,20.4,30.21,WNW,302,11.0,19.0,83,0.00,,---,0.00,VWS V13.01,2013-04-02 14:38:00,
2013-04-02 10:43:00,24.8,20.4,30.20,WNW,298,8.0,19.0,83,0.00,,---,0.00,VWS V13.01,2013-04-02 14:43:00,
2013-04-02 10:48:00,25.5,20.8,30.21,NW,321,11.0,19.0,82,0.00,,---,0.00,VWS V13.01,2013-04-02 14:48:00,
2013-04-02 10:53:00,25.7,20.7,30.21,NNW,344,16.0,19.0,81,0.00,,---,0.00,VWS V13.01,2013-04-02 14:53:00,
2013-04-02 10:59:00,25.3,20.9,30.21,WNW,288,10.0,19.0,83,0.00,,---,0.00,VWS V13.01,2013-04-02 14:59:00,
2013-04-02 11:04:00,25.2,20.5,30.21,WNW,294,9.0,15.0,82,0.00,,---,0.00,VWS V13.01,2013-04-02 15:04:00,
2013-04-02 11:09:00,25.4,20.4,30.22,West,277,8.0,20.0,81,0.00,,---,0.00,VWS V13.01,2013-04-02 15:09:00,
2013-04-02 11:15:00,26.3,19.8,30.21,West,276,12.0,24.0,76,0.00,,---,0.00,VWS V13.01,2013-04-02 15:15:00,
2013-04-02 11:20:00,26.6,19.4,30.22,WNW,299,21.0,24.0,74,0.00,,---,0.00,VWS V13.01,2013-04-02 15:20:00,
2013-04-02 11:25:00,27.0,20.1,30.22,NW,312,16.0,24.0,75,0.00,,---,0.00,VWS V13.01,2013-04-02 15:25:00,
2013-04-02 11:30:00,27.4,20.8,30.22,NNW,329,12.0,24.0,76,0.00,,---,0.00,VWS V13.01,2013-04-02 15:30:00,
2013-04-02 11:35:00,27.0,19.5,30.22,NNW,340,7.0,18.0,73,0.00,,---,0.00,VWS V13.01,2013-04-02 15:35:00,
2013-04-02 11:40:00,26.3,19.5,30.22,WNW,302,16.0,23.0,75,0.00,,---,0.00,VWS V13.01,2013-04-02 15:40:00,
2013-04-02 11:46:00,26.6,20.1,30.22,WNW,300,20.0,23.0,76,0.00,,---,0.00,VWS V13.01,2013-04-02 15:46:00,
2013-04-02 11:52:00,27.0,18.5,30.22,NW,305,7.0,23.0,70,0.00,,---,0.00,VWS V13.01,2013-04-02 15:52:00,
2013-04-02 11:57:00,27.4,18.9,30.22,NW,323,11.0,23.0,70,0.00,,---,0.00,VWS V13.01,2013-04-02 15:57:00,
2013-04-02 12:02:00,27.9,19.7,30.23,NNW,336,8.0,16.0,71,0.00,,---,0.00,VWS V13.01,2013-04-02 16:02:00,
2013-04-02 12:07:00,27.2,18.7,30.23,NW,311,16.0,21.0,70,0.00,,---,0.00,VWS V13.01,2013-04-02 16:07:00,
2013-04-02 12:13:00,26.7,19.2,30.23,WNW,296,11.0,26.0,73,0.00,,---,0.00,VWS V13.01,2013-04-02 16:13:00,
2013-04-02 12:19:00,27.8,20.3,30.23,NW,309,6.0,26.0,73,0.00,,---,0.00,VWS V13.01,2013-04-02 16:19:00,
2013-04-02 12:24:00,27.9,20.1,30.23,NNW,329,10.0,26.0,72,0.00,,---,0.00,VWS V13.01,2013-04-02 16:24:00,
2013-04-02 12:29:00,27.6,19.4,30.23,West,263,21.0,26.0,71,0.00,,---,0.00,VWS V13.01,2013-04-02 16:29:00,
2013-04-02 12:35:00,28.1,19.3,30.23,NW,304,13.0,22.0,69,0.00,,---,0.00,VWS V13.01,2013-04-02 16:35:00,
2013-04-02 12:40:00,28.6,18.7,30.22,NW,309,10.0,22.0,66,0.00,,---,0.00,VWS V13.01,2013-04-02 16:40:00,
2013-04-02 12:45:00,28.5,20.0,30.23,WNW,290,12.0,24.0,70,0.00,,---,0.00,VWS V13.01,2013-04-02 16:45:00,
2013-04-02 12:51:00,28.3,19.8,30.23,WNW,294,10.0,24.0,70,0.00,,---,0.00,VWS V13.01,2013-04-02 16:51:00,
2013-04-02 12:56:00,29.2,20.0,30.22,West,271,9.0,24.0,68,0.00,,---,0.00,VWS V13.01,2013-04-02 16:56:00,
2013-04-02 13:02:00,28.7,19.5,30.22,NW,314,15.0,16.0,68,0.00,,---,0.00,VWS V13.01,2013-04-02 17:02:00,
2013-04-02 13:07:00,28.6,19.7,30.22,NW,304,8.0,21.0,69,0.00,,---,0.00,VWS V13.01,2013-04-02 17:07:00,
2013-04-02 13:12:00,28.7,20.2,30.22,NW,308,6.0,21.0,70,0.00,,---,0.00,VWS V13.01,2013-04-02 17:12:00,
2013-04-02 13:17:00,29.4,21.5,30.22,West,275,23.0,23.0,72,0.00,,---,0.00,VWS V13.01,2013-04-02 17:17:00,
2013-04-02 13:22:00,29.7,19.8,30.22,NW,319,12.0,24.0,66,0.00,,---,0.00,VWS V13.01,2013-04-02 17:22:00,
2013-04-02 13:28:00,30.2,20.2,30.22,WNW,288,15.0,24.0,66,0.00,,---,0.00,VWS V13.01,2013-04-02 17:28:00,
2013-04-02 13:33:00,30.4,21.1,30.22,WNW,294,16.0,26.0,68,0.00,,---,0.00,VWS V13.01,2013-04-02 17:33:00,
2013-04-02 13:38:00,30.9,20.5,30.22,NNW,330,15.0,26.0,65,0.00,,---,0.00,VWS V13.01,2013-04-02 17:38:00,
2013-04-02 13:43:00,30.5,19.4,30.21,NW,312,16.0,26.0,63,0.00,,---,0.00,VWS V13.01,2013-04-02 17:43:00,
2013-04-02 13:50:00,29.7,18.7,30.21,WNW,293,16.0,26.0,63,0.00,,---,0.00,VWS V13.01,2013-04-02 17:50:00,
2013-04-02 13:55:00,30.0,19.7,30.21,NW,321,19.0,27.0,65,0.00,,---,0.00,VWS V13.01,2013-04-02 17:55:00,
2013-04-02 14:01:00,29.8,18.0,30.22,WNW,303,16.0,23.0,61,0.00,,---,0.00,VWS V13.01,2013-04-02 18:01:00,
2013-04-02 14:06:00,30.0,18.2,30.21,West,281,19.0,23.0,61,0.00,,---,0.00,VWS V13.01,2013-04-02 18:06:00,
2013-04-02 14:12:00,30.1,18.7,30.22,WNW,287,16.0,24.0,62,0.00,,---,0.00,VWS V13.01,2013-04-02 18:12:00,
2013-04-02 14:17:00,30.7,18.9,30.22,West,281,16.0,24.0,61,0.00,,---,0.00,VWS V13.01,2013-04-02 18:17:00,
2013-04-02 14:23:00,30.8,17.8,30.22,WNW,300,14.0,24.0,58,0.00,,---,0.00,VWS V13.01,2013-04-02 18:23:00,
2013-04-02 14:29:00,30.5,18.3,30.22,West,279,21.0,25.0,60,0.00,,---,0.00,VWS V13.01,2013-04-02 18:29:00,
2013-04-02 14:34:00,30.7,17.7,30.22,NNW,340,23.0,24.0,58,0.00,,---,0.00,VWS V13.01,2013-04-02 18:34:00,
2013-04-02 14:39:00,30.4,16.2,30.22,WNW,294,14.0,26.0,55,0.00,,---,0.00,VWS V13.01,2013-04-02 18:39:00,
2013-04-02 14:44:00,30.8,18.2,30.22,West,277,10.0,26.0,59,0.00,,---,0.00,VWS V13.01,2013-04-02 18:44:00,
2013-04-02 14:50:00,30.5,16.7,30.22,WNW,296,11.0,26.0,56,0.00,,---,0.00,VWS V13.01,2013-04-02 18:50:00,
2013-04-02 14:55:00,30.0,15.4,30.22,NW,308,13.0,26.0,54,0.00,,---,0.00,VWS V13.01,2013-04-02 18:55:00,
2013-04-02 15:00:00,30.5,17.5,30.22,NW,321,14.0,26.0,58,0.00,,---,0.00,VWS V13.01,2013-04-02 19:00:00,
2013-04-02 15:05:00,31.9,18.0,30.21,WNW,285,11.0,22.0,56,0.00,,---,0.00,VWS V13.01,2013-04-02 19:05:00,
2013-04-02 15:10:00,30.9,15.4,30.22,WNW,290,8.0,26.0,52,0.00,,---,0.00,VWS V13.01,2013-04-02 19:10:00,
2013-04-02 15:15:00,31.8,17.1,30.22,WNW,283,16.0,27.0,54,0.00,,---,0.00,VWS V13.01,2013-04-02 19:15:00,
2013-04-02 15:21:00,31.4,17.9,30.22,West,271,16.0,27.0,57,0.00,,---,0.00,VWS V13.01,2013-04-02 19:21:00,
2013-04-02 15:27:00,32.5,17.3,30.21,WNW,291,19.0,27.0,53,0.00,,---,0.00,VWS V13.01,2013-04-02 19:27:00,
2013-04-02 15:32:00,32.8,17.1,30.22,NW,311,12.0,19.0,52,0.00,,---,0.00,VWS V13.01,2013-04-02 19:32:00,
2013-04-02 15:37:00,32.0,16.4,30.22,NNW,335,9.0,28.0,52,0.00,,---,0.00,VWS V13.01,2013-04-02 19:37:00,
2013-04-02 15:42:00,32.1,19.0,30.22,NW,326,24.0,28.0,58,0.00,,---,0.00,VWS V13.01,2013-04-02 19:42:00,
2013-04-02 15:47:00,31.4,16.7,30.22,WNW,301,11.0,28.0,54,0.00,,---,0.00,VWS V13.01,2013-04-02 19:47:00,
2013-04-02 15:53:00,31.2,15.6,30.22,NNW,340,11.0,28.0,52,0.00,,---,0.00,VWS V13.01,2013-04-02 19:53:00,
2013-04-02 15:58:00,31.3,17.9,30.22,WNW,285,16.0,28.0,57,0.00,,---,0.00,VWS V13.01,2013-04-02 19:58:00,
2013-04-02 16:04:00,31.0,17.6,30.22,NW,317,12.0,23.0,57,0.00,,---,0.00,VWS V13.01,2013-04-02 20:04:00,
2013-04-02 16:09:00,31.3,16.6,30.22,North,355,19.0,23.0,54,0.00,,---,0.00,VWS V13.01,2013-04-02 20:09:00,
2013-04-02 16:14:00,32.0,18.5,30.23,WNW,287,13.0,23.0,57,0.00,,---,0.00,VWS V13.01,2013-04-02 20:14:00,
2013-04-02 16:20:00,32.3,16.7,30.23,West,281,11.0,25.0,52,0.00,,---,0.00,VWS V13.01,2013-04-02 20:20:00,
2013-04-02 16:25:00,31.9,17.2,30.22,NW,321,9.0,25.0,54,0.00,,---,0.00,VWS V13.01,2013-04-02 20:25:00,
2013-04-02 16:30:00,31.9,15.8,30.22,WNW,296,18.0,25.0,51,0.00,,---,0.00,VWS V13.01,2013-04-02 20:30:00,
2013-04-02 16:35:00,32.0,16.8,30.22,WNW,303,12.0,23.0,53,0.00,,---,0.00,VWS V13.01,2013-04-02 20:35:00,
2013-04-02 16:40:00,31.8,16.2,30.22,WNW,301,19.0,25.0,52,0.01,,---,0.01,VWS V13.01,2013-04-02 20:40:00,
2013-04-02 16:47:00,31.3,16.6,30.22,NW,314,18.0,25.0,54,0.01,,---,0.01,VWS V13.01,2013-04-02 20:47:00,
2013-04-02 16:52:00,31.8,17.1,30.22,WNW,288,16.0,25.0,54,0.01,,---,0.01,VWS V13.01,2013-04-02 20:52:00,
2013-04-02 16:57:00,31.8,16.6,30.23,WNW,302,19.0,25.0,53,0.01,,---,0.01,VWS V13.01,2013-04-02 20:57:00,
2013-04-02 17:03:00,31.9,16.3,30.23,WNW,302,14.0,23.0,52,0.01,,---,0.01,VWS V13.01,2013-04-02 21:03:00,
2013-04-02 17:09:00,31.4,15.8,30.23,West,277,15.0,23.0,52,0.01,,---,0.01,VWS V13.01,2013-04-02 21:09:00,
2013-04-02 17:14:00,31.1,16.4,30.23,NW,311,23.0,23.0,54,0.01,,---,0.01,VWS V13.01,2013-04-02 21:14:00,
2013-04-02 17:19:00,31.7,16.5,30.23,West,281,15.0,24.0,53,0.01,,---,0.01,VWS V13.01,2013-04-02 21:19:00,
2013-04-02 17:25:00,31.3,16.6,30.24,NW,313,12.0,24.0,54,0.01,,---,0.01,VWS V13.01,2013-04-02 21:25:00,
2013-04-02 17:30:00,31.0,16.7,30.24,NW,323,14.0,24.0,55,0.01,,---,0.01,VWS V13.01,2013-04-02 21:30:00,
2013-04-02 17:35:00,31.0,16.3,30.23,WNW,302,16.0,16.0,54,0.01,,---,0.01,VWS V13.01,2013-04-02 21:35:00,
2013-04-02 17:40:00,30.6,15.5,30.24,West,280,9.0,19.0,53,0.01,,---,0.01,VWS V13.01,2013-04-02 21:40:00,
2013-04-02 17:45:00,31.1,16.8,30.24,WNW,294,4.0,19.0,55,0.01,,---,0.01,VWS V13.01,2013-04-02 21:45:00,
2013-04-02 17:51:00,31.7,17.8,30.24,NW,320,7.0,19.0,56,0.01,,---,0.01,VWS V13.01,2013-04-02 21:51:00,
2013-04-02 17:57:00,31.5,16.4,30.24,West,273,16.0,22.0,53,0.01,,---,0.01,VWS V13.01,2013-04-02 21:57:00,
2013-04-02 18:02:00,31.8,16.2,30.24,West,267,14.0,20.0,52,0.00,,---,0.01,VWS V13.01,2013-04-02 22:02:00,
2013-04-02 18:07:00,31.6,15.6,30.24,WNW,286,11.0,21.0,51,0.00,,---,0.01,VWS V13.01,2013-04-02 22:07:00,
2013-04-02 18:13:00,31.9,18.4,30.24,WNW,298,16.0,21.0,57,0.00,,---,0.01,VWS V13.01,2013-04-02 22:13:00,
2013-04-02 18:18:00,31.7,16.5,30.25,NNW,332,15.0,25.0,53,0.00,,---,0.01,VWS V13.01,2013-04-02 22:18:00,
2013-04-02 18:24:00,31.2,15.6,30.25,WNW,284,13.0,25.0,52,0.00,,---,0.01,VWS V13.01,2013-04-02 22:24:00,
2013-04-02 18:29:00,31.0,16.3,30.25,NW,309,8.0,25.0,54,0.00,,---,0.01,VWS V13.01,2013-04-02 22:29:00,
2013-04-02 18:34:00,31.0,15.9,30.25,WNW,284,5.0,15.0,53,0.00,,---,0.01,VWS V13.01,2013-04-02 22:34:00,
2013-04-02 18:39:00,31.1,16.4,30.25,WNW,299,7.0,19.0,54,0.00,,---,0.01,VWS V13.01,2013-04-02 22:39:00,
2013-04-02 18:44:00,30.9,15.8,30.25,WNW,288,13.0,19.0,53,0.00,,---,0.01,VWS V13.01,2013-04-02 22:44:00,
2013-04-02 18:50:00,31.1,16.8,30.25,WNW,303,8.0,19.0,55,0.00,,---,0.01,VWS V13.01,2013-04-02 22:50:00,
2013-04-02 18:55:00,31.0,16.7,30.25,WNW,292,11.0,19.0,55,0.00,,---,0.01,VWS V13.01,2013-04-02 22:55:00,
2013-04-02 19:01:00,30.8,17.0,30.25,WNW,294,7.0,9.0,56,0.00,,---,0.01,VWS V13.01,2013-04-02 23:01:00,
2013-04-02 19:06:00,30.8,16.1,30.25,WNW,293,14.0,16.0,54,0.00,,---,0.01,VWS V13.01,2013-04-02 23:06:00,
2013-04-02 19:12:00,30.7,17.3,30.26,WNW,290,9.0,16.0,57,0.00,,---,0.01,VWS V13.01,2013-04-02 23:12:00,
2013-04-02 19:17:00,30.5,16.3,30.26,NW,319,8.0,16.0,55,0.00,,---,0.01,VWS V13.01,2013-04-02 23:17:00,
2013-04-02 19:22:00,30.5,16.7,30.25,NW,309,6.0,16.0,56,0.00,,---,0.01,VWS V13.01,2013-04-02 23:22:00,
2013-04-02 19:27:00,30.3,16.9,30.26,WNW,286,5.0,16.0,57,0.00,,---,0.01,VWS V13.01,2013-04-02 23:27:00,
2013-04-02 19:32:00,30.2,16.8,30.26,WNW,285,9.0,11.0,57,0.00,,---,0.01,VWS V13.01,2013-04-02 23:32:00,
2013-04-02 19:38:00,30.3,16.9,30.26,NW,322,20.0,21.0,57,0.00,,---,0.01,VWS V13.01,2013-04-02 23:38:00,
2013-04-02 19:43:00,30.3,16.1,30.26,WNW,301,13.0,21.0,55,0.00,,---,0.01,VWS V13.01,2013-04-02 23:43:00,
2013-04-02 19:48:00,30.3,17.3,30.26,WNW,301,7.0,21.0,58,0.00,,---,0.01,VWS V13.01,2013-04-02 23:48:00,
2013-04-02 19:53:00,30.4,16.6,30.26,NW,309,8.0,21.0,56,0.00,,---,0.01,VWS V13.01,2013-04-02 23:53:00,
2013-04-02 19:59:00,30.3,16.9,30.26,WNW,290,4.0,21.0,57,0.00,,---,0.01,VWS V13.01,2013-04-02 23:59:00,
2013-04-02 20:04:00,30.2,16.8,30.26,WNW,289,8.0,10.0,57,0.00,,---,0.01,VWS V13.01,2013-04-03 00:04:00,
2013-04-02 20:09:00,30.2,17.6,30.26,WNW,301,7.0,10.0,59,0.00,,---,0.01,VWS V13.01,2013-04-03 00:09:00,
2013-04-02 20:15:00,30.1,17.5,30.26,NW,309,7.0,10.0,59,0.00,,---,0.01,VWS V13.01,2013-04-03 00:15:00,
2013-04-02 20:20:00,30.1,17.5,30.26,WNW,296,2.0,10.0,59,0.00,,---,0.01,VWS V13.01,2013-04-03 00:20:00,
2013-04-02 20:25:00,30.0,17.8,30.26,WNW,296,6.0,10.0,60,0.00,,---,0.01,VWS V13.01,2013-04-03 00:25:00,
2013-04-02 20:30:00,30.0,17.0,30.26,WNW,293,4.0,5.0,58,0.00,,---,0.01,VWS V13.01,2013-04-03 00:30:00,
2013-04-02 20:36:00,29.9,17.7,30.26,WNW,292,6.0,9.0,60,0.00,,---,0.01,VWS V13.01,2013-04-03 00:36:00,
2013-04-02 20:41:00,29.9,18.1,30.27,WNW,290,4.0,9.0,61,0.00,,---,0.01,VWS V13.01,2013-04-03 00:41:00,
2013-04-02 20:46:00,29.6,17.8,30.27,WNW,290,6.0,9.0,61,0.00,,---,0.01,VWS V13.01,2013-04-03 00:46:00,
2013-04-02 20:52:00,29.7,17.5,30.27,WNW,287,9.0,13.0,60,0.00,,---,0.01,VWS V13.01,2013-04-03 00:52:00,
2013-04-02 20:57:00,30.0,17.0,30.27,WNW,286,7.0,13.0,58,0.00,,---,0.01,VWS V13.01,2013-04-03 00:57:00,
2013-04-02 21:03:00,29.6,17.4,30.27,WNW,283,9.0,9.0,60,0.00,,---,0.01,VWS V13.01,2013-04-03 01:03:00,
2013-04-02 21:08:00,29.4,16.9,30.27,WNW,286,4.0,10.0,59,0.00,,---,0.01,VWS V13.01,2013-04-03 01:08:00,
2013-04-02 21:13:00,29.3,17.5,30.27,WNW,284,4.0,10.0,61,0.00,,---,0.01,VWS V13.01,2013-04-03 01:13:00,
2013-04-02 21:18:00,29.0,17.6,30.27,WNW,283,4.0,10.0,62,0.00,,---,0.01,VWS V13.01,2013-04-03 01:18:00,
2013-04-02 21:23:00,28.8,17.1,30.27,WNW,283,2.0,10.0,61,0.00,,---,0.01,VWS V13.01,2013-04-03 01:23:00,
2013-04-02 21:29:00,28.7,17.0,30.27,WNW,283,0.0,10.0,61,0.00,,---,0.01,VWS V13.01,2013-04-03 01:29:00,
2013-04-02 21:34:00,28.5,17.1,30.27,WNW,283,0.0,6.0,62,0.00,,---,0.01,VWS V13.01,2013-04-03 01:34:00,
2013-04-02 21:39:00,28.5,16.8,30.28,West,281,0.0,7.0,61,0.00,,---,0.01,VWS V13.01,2013-04-03 01:39:00,
2013-04-02 21:45:00,28.5,17.9,30.28,West,281,0.0,7.0,64,0.00,,---,0.01,VWS V13.01,2013-04-03 01:45:00,
2013-04-02 21:50:00,28.5,17.1,30.28,West,281,0.0,7.0,62,0.00,,---,0.01,VWS V13.01,2013-04-03 01:50:00,
2013-04-02 21:55:00,28.5,16.8,30.28,West,280,0.0,7.0,61,0.00,,---,0.01,VWS V13.01,2013-04-03 01:55:00,
2013-04-02 22:01:00,28.3,17.0,30.28,West,281,0.0,0.0,62,0.00,,---,0.01,VWS V13.01,2013-04-03 02:01:00,
2013-04-02 22:07:00,28.1,17.1,30.28,West,280,0.0,1.0,63,0.00,,---,0.01,VWS V13.01,2013-04-03 02:07:00,
2013-04-02 22:12:00,28.2,16.9,30.28,West,276,5.0,7.0,62,0.00,,---,0.01,VWS V13.01,2013-04-03 02:12:00,
2013-04-02 22:18:00,28.5,16.8,30.27,West,275,1.0,7.0,61,0.00,,---,0.01,VWS V13.01,2013-04-03 02:18:00,
2013-04-02 22:23:00,28.3,18.4,30.28,West,275,1.0,7.0,66,0.00,,---,0.01,VWS V13.01,2013-04-03 02:23:00,
2013-04-02 22:29:00,27.9,17.3,30.28,West,275,0.0,7.0,64,0.00,,---,0.01,VWS V13.01,2013-04-03 02:29:00,
2013-04-02 22:37:00,28.1,17.9,30.28,West,275,0.0,4.0,65,0.00,,---,0.01,VWS V13.01,2013-04-03 02:37:00,
2013-04-02 22:42:00,28.5,17.9,30.28,West,275,0.0,4.0,64,0.00,,---,0.01,VWS V13.01,2013-04-03 02:42:00,
2013-04-02 22:47:00,28.5,19.0,30.28,West,276,0.0,4.0,67,0.00,,---,0.01,VWS V13.01,2013-04-03 02:47:00,
2013-04-02 22:53:00,28.4,19.2,30.27,West,276,0.0,4.0,68,0.00,,---,0.01,VWS V13.01,2013-04-03 02:53:00,
2013-04-02 22:58:00,28.6,19.7,30.27,West,276,0.0,4.0,69,0.00,,---,0.01,VWS V13.01,2013-04-03 02:58:00,
2013-04-02 23:03:00,28.5,19.3,30.28,West,275,4.0,4.0,68,0.00,,---,0.01,VWS V13.01,2013-04-03 03:03:00,
2013-04-02 23:08:00,28.7,18.8,30.27,WNW,294,6.0,12.0,66,0.00,,---,0.01,VWS V13.01,2013-04-03 03:08:00,
2013-04-02 23:13:00,29.1,19.2,30.27,NW,306,5.0,13.0,66,0.00,,---,0.01,VWS V13.01,2013-04-03 03:13:00,
2013-04-02 23:19:00,28.9,18.6,30.27,WNW,287,5.0,13.0,65,0.00,,---,0.01,VWS V13.01,2013-04-03 03:19:00,
2013-04-02 23:24:00,29.0,19.4,30.28,NW,315,0.0,13.0,67,0.00,,---,0.01,VWS V13.01,2013-04-03 03:24:00,
2013-04-02 23:29:00,28.8,18.9,30.28,NW,314,0.0,13.0,66,0.00,,---,0.01,VWS V13.01,2013-04-03 03:29:00,
2013-04-02 23:35:00,28.6,18.7,30.28,NW,315,0.0,4.0,66,0.00,,---,0.01,VWS V13.01,2013-04-03 03:35:00,
2013-04-02 23:40:00,28.5,19.6,30.28,NW,315,0.0,4.0,69,0.00,,---,0.01,VWS V13.01,2013-04-03 03:40:00,
2013-04-02 23:45:00,28.4,19.9,30.28,NW,315,0.0,4.0,70,0.00,,---,0.01,VWS V13.01,2013-04-03 03:45:00,
2013-04-02 23:52:00,28.5,20.0,30.28,NW,314,2.0,4.0,70,0.00,,---,0.01,VWS V13.01,2013-04-03 03:52:00,
2013-04-02 23:57:00,28.4,19.2,30.29,NNW,331,5.0,9.0,68,0.00,,---,0.01,VWS V13.01,2013-04-03 03:57:00,